createdAt,value
2023-05-13T00:00:00.000Z,12.21
2023-05-13T00:15:00.000Z,12.58
2023-05-13T00:30:00.000Z,13.73
2023-05-13T00:45:00.000Z,14.06
2023-05-13T01:00:00.000Z,13
2023-05-13T01:15:00.000Z,12.07
2023-05-13T01:30:00.000Z,12.46
2023-05-13T01:45:00.000Z,11.99
2023-05-13T02:00:00.000Z,10.9
2023-05-13T02:15:00.000Z,10.35
2023-05-13T02:30:00.000Z,10.16
2023-05-13T02:45:00.000Z,10.46
2023-05-13T03:00:00.000Z,10.6
2023-05-13T03:15:00.000Z,10.21
2023-05-13T03:30:00.000Z,9.12
2023-05-13T03:45:00.000Z,8.14
2023-05-13T04:00:00.000Z,8.25
2023-05-13T04:15:00.000Z,8.67
2023-05-13T04:30:00.000Z,8.64
2023-05-13T04:45:00.000Z,8.19
2023-05-13T05:00:00.000Z,8.01
2023-05-13T05:15:00.000Z,7.22
2023-05-13T05:30:00.000Z,6.36
2023-05-13T05:45:00.000Z,6.78
2023-05-13T06:00:00.000Z,5.76
2023-05-13T06:15:00.000Z,5.33
2023-05-13T06:30:00.000Z,5.22
2023-05-13T06:45:00.000Z,4.2
2023-05-13T07:00:00.000Z,5.16
2023-05-13T07:15:00.000Z,5.31
2023-05-13T07:30:00.000Z,4.62
2023-05-13T07:45:00.000Z,4.7
2023-05-13T08:00:00.000Z,4.78
2023-05-13T08:15:00.000Z,4.4
2023-05-13T08:30:00.000Z,4.54
2023-05-13T08:45:00.000Z,4.28
2023-05-13T09:00:00.000Z,3.99
2023-05-13T09:15:00.000Z,4.79
2023-05-13T09:30:00.000Z,5.25
2023-05-13T09:45:00.000Z,6.13
2023-05-13T10:00:00.000Z,6.33
2023-05-13T10:15:00.000Z,5.46
2023-05-13T10:30:00.000Z,6.78
2023-05-13T10:45:00.000Z,6.64
2023-05-13T11:00:00.000Z,6.12
2023-05-13T11:15:00.000Z,5.18
2023-05-13T11:30:00.000Z,3.41
2023-05-13T11:45:00.000Z,3.24
2023-05-13T12:00:00.000Z,3.11
2023-05-13T12:15:00.000Z,3.39
2023-05-13T12:30:00.000Z,3.38
2023-05-13T12:45:00.000Z,3.27
2023-05-13T13:00:00.000Z,2.41
2023-05-13T13:15:00.000Z,2.75
2023-05-13T13:30:00.000Z,3.27
2023-05-13T13:45:00.000Z,3.19
2023-05-13T14:00:00.000Z,3.33
2023-05-13T14:15:00.000Z,2.56
2023-05-13T14:30:00.000Z,3.25
2023-05-13T14:45:00.000Z,3.04
2023-05-13T15:00:00.000Z,5.11
2023-05-13T15:15:00.000Z,8.46
2023-05-13T15:30:00.000Z,5.56
2023-05-13T15:45:00.000Z,5.09
2023-05-13T16:00:00.000Z,9.11
2023-05-13T16:15:00.000Z,9.22
2023-05-13T16:30:00.000Z,8.82
2023-05-13T16:45:00.000Z,10.95
2023-05-13T17:00:00.000Z,14.45
2023-05-13T17:15:00.000Z,17.28
2023-05-13T17:30:00.000Z,15.64
2023-05-13T17:45:00.000Z,13.98
2023-05-13T18:00:00.000Z,5.8
2023-05-13T18:15:00.000Z,6.11
2023-05-13T18:30:00.000Z,6.14
2023-05-13T18:45:00.000Z,7.19
2023-05-13T19:00:00.000Z,15.36
2023-05-13T19:15:00.000Z,18.38
2023-05-13T19:30:00.000Z,13.93
2023-05-13T19:45:00.000Z,16.22
2023-05-13T20:00:00.000Z,17.51
2023-05-13T20:15:00.000Z,18.18
2023-05-13T20:30:00.000Z,17.26
2023-05-13T20:45:00.000Z,18.8
2023-05-13T21:00:00.000Z,28.06
2023-05-13T21:15:00.000Z,30.22
2023-05-13T21:30:00.000Z,30.27
2023-05-13T21:45:00.000Z,30.18
2023-05-13T22:00:00.000Z,30.81
2023-05-13T22:15:00.000Z,30.62
2023-05-13T22:30:00.000Z,29.86
2023-05-13T22:45:00.000Z,30.18
2023-05-13T23:00:00.000Z,30.47
2023-05-13T23:15:00.000Z,29.69
2023-05-13T23:30:00.000Z,24.35
2023-05-13T23:45:00.000Z,11.13
